Bowden, West Virginia
Current Conditions -  °F | °C
As of 12:51 PM on Wednesday 28 Jan 2015 (Local Time) from KEKN Reporting Station
Clear Clear  
Wind Chill: 25°   Ceiling: Unl
Heat Index: 25°   Visibility: 10mi
Dew Point: 13°   Wind: 0mph
Humidity: 60%   Direction: NA
Pressure: 30.26"   Gusts: NA
Location:  38.91°N, 79.71°W
Report Text: KEKN 281751Z AUTO 00000KT 10SM CLR M04/M11 A3026 RMK AO2 SLP279 60000 T10391106 11039 21089 58006 TSNO
Loading
Personal Weather Stations






























Interactive Weather Map New forecast layout! Learn more

10-Day Weather Forecast

Advertisements
Track Severe Weather on mobile